createdAt,value
2019-05-13T00:00:34.225Z,22.00
2019-05-13T00:05:34.087Z,21.60
2019-05-13T00:08:03.767Z,21.80
2019-05-13T00:10:34.778Z,22.30
2019-05-13T00:13:04.325Z,22.40
2019-05-13T00:15:34.209Z,21.80
2019-05-13T00:18:03.906Z,21.50
2019-05-13T00:20:34.110Z,21.80
2019-05-13T00:23:04.063Z,21.30
2019-05-13T00:25:34.075Z,22.20
2019-05-13T00:28:04.289Z,21.80
2019-05-13T00:30:34.217Z,21.40
2019-05-13T00:35:33.852Z,21.20
2019-05-13T00:38:04.166Z,21.80
2019-05-13T00:40:33.747Z,21.60
2019-05-13T00:43:04.143Z,21.50
2019-05-13T00:45:34.046Z,21.10
2019-05-13T00:50:35.438Z,21.70
2019-05-13T00:53:04.940Z,22.30
2019-05-13T00:55:34.766Z,21.80
2019-05-13T00:58:05.691Z,22.10
2019-05-13T01:00:35.096Z,21.10
2019-05-13T01:03:04.277Z,21.10
2019-05-13T01:05:33.971Z,21.40
2019-05-13T01:08:04.501Z,21.10
2019-05-13T01:10:34.609Z,21.20
2019-05-13T01:13:05.020Z,21.30
2019-05-13T01:15:34.735Z,21.20
2019-05-13T01:20:34.562Z,21.90
2019-05-13T01:23:04.121Z,21.40
2019-05-13T01:25:35.159Z,21.10
2019-05-13T01:28:04.643Z,21.60
2019-05-13T01:30:34.656Z,21.30
2019-05-13T01:33:04.613Z,21.30
2019-05-13T01:38:04.791Z,21.80
2019-05-13T01:40:34.746Z,21.70
2019-05-13T01:43:05.887Z,21.70
2019-05-13T01:45:34.406Z,21.70
2019-05-13T01:50:33.808Z,21.70
2019-05-13T01:53:04.258Z,21.50
2019-05-13T01:55:33.908Z,21.80
2019-05-13T01:58:04.301Z,21.00
2019-05-13T02:00:35.611Z,21.70
2019-05-13T02:03:04.719Z,21.70
2019-05-13T02:08:04.769Z,21.60
2019-05-13T02:10:50.644Z,21.50
2019-05-13T02:13:19.169Z,20.80
2019-05-13T02:15:47.973Z,21.50
2019-05-13T02:20:44.644Z,22.40
2019-05-13T02:23:14.533Z,20.50
2019-05-13T02:25:43.736Z,21.30
2019-05-13T02:33:13.420Z,21.60
2019-05-13T02:35:43.366Z,20.90
2019-05-13T02:38:22.572Z,21.80
2019-05-13T02:40:43.654Z,21.10
2019-05-13T02:45:43.358Z,20.60
2019-05-13T02:48:12.645Z,21.50
2019-05-13T02:50:44.158Z,20.70
2019-05-13T02:53:13.674Z,21.10
2019-05-13T02:55:43.748Z,21.40
2019-05-13T02:58:12.833Z,21.80
2019-05-13T03:00:44.117Z,21.50
2019-05-13T03:03:12.932Z,21.20
2019-05-13T03:05:42.979Z,20.70
2019-05-13T03:08:12.685Z,21.20
2019-05-13T03:13:12.630Z,21.00
2019-05-13T03:15:55.827Z,20.80
2019-05-13T03:18:24.345Z,21.20
2019-05-13T03:20:53.319Z,20.60
2019-05-13T03:23:22.866Z,20.80
2019-05-13T03:25:53.917Z,20.80
2019-05-13T03:28:23.015Z,21.10
2019-05-13T03:33:27.427Z,21.30
2019-05-13T03:35:55.999Z,21.10
2019-05-13T03:38:22.911Z,20.50
2019-05-13T03:40:54.976Z,21.30
2019-05-13T03:43:26.838Z,21.10
2019-05-13T03:45:57.642Z,20.50
2019-05-13T03:48:26.179Z,21.00
2019-05-13T03:53:23.896Z,21.10
2019-05-13T03:55:54.301Z,20.90
2019-05-13T03:58:24.032Z,20.50
2019-05-13T04:03:22.828Z,21.40
2019-05-13T04:05:52.694Z,20.80
2019-05-13T04:08:22.721Z,21.20
2019-05-13T04:10:53.795Z,20.60
2019-05-13T04:13:23.388Z,20.60
2019-05-13T04:15:53.310Z,21.10
2019-05-13T04:20:53.112Z,20.50
2019-05-13T04:23:23.654Z,21.00
2019-05-13T04:25:53.908Z,20.80
2019-05-13T04:28:23.041Z,20.90
2019-05-13T04:30:53.265Z,20.40
2019-05-13T04:33:23.221Z,20.80
2019-05-13T04:40:53.063Z,20.70
2019-05-13T04:45:52.585Z,20.70
2019-05-13T04:53:23.726Z,20.10
2019-05-13T04:55:53.035Z,20.60
2019-05-13T04:58:23.536Z,21.10
2019-05-13T05:01:07.940Z,19.90
2019-05-13T05:03:41.328Z,20.80
2019-05-13T05:06:33.464Z,21.00
2019-05-13T05:11:58.641Z,21.10
2019-05-13T05:14:32.838Z,20.40
2019-05-13T05:17:32.611Z,20.50
2019-05-13T05:20:04.000Z,20.90
2019-05-13T05:23:07.698Z,20.20
2019-05-13T05:25:48.214Z,20.20
2019-05-13T05:28:36.201Z,20.50
2019-05-13T05:31:16.677Z,21.00
2019-05-13T05:34:07.419Z,20.90
2019-05-13T05:37:02.212Z,21.00
2019-05-13T05:42:02.188Z,20.90
2019-05-13T05:44:33.172Z,20.80
2019-05-13T05:49:32.368Z,20.40
2019-05-13T05:52:06.822Z,20.60
2019-05-13T05:57:07.988Z,20.00
2019-05-13T05:59:38.567Z,21.00
2019-05-13T06:02:11.595Z,20.20
2019-05-13T06:07:11.580Z,20.00
2019-05-13T06:09:42.373Z,20.30
2019-05-13T06:14:42.420Z,20.20
2019-05-13T06:22:12.259Z,20.20
2019-05-13T06:24:42.101Z,20.10
2019-05-13T06:27:12.860Z,21.30
2019-05-13T06:29:42.307Z,21.00
2019-05-13T06:32:19.142Z,20.70
2019-05-13T06:34:42.252Z,21.00
2019-05-13T06:37:11.416Z,20.90
2019-05-13T06:44:42.137Z,21.10
2019-05-13T06:47:11.485Z,20.40
2019-05-13T06:49:42.854Z,20.30
2019-05-13T06:52:12.032Z,20.20
2019-05-13T06:54:41.824Z,20.10
2019-05-13T06:59:41.989Z,20.40
2019-05-13T07:02:12.420Z,20.80
2019-05-13T07:04:41.572Z,20.10
2019-05-13T07:07:16.709Z,20.80
2019-05-13T07:09:42.718Z,20.50
2019-05-13T07:12:11.444Z,20.10
2019-05-13T07:14:41.315Z,20.30
2019-05-13T07:17:12.348Z,21.00
2019-05-13T07:19:41.492Z,20.80
2019-05-13T07:22:11.607Z,20.00
2019-05-13T07:24:41.577Z,21.00
2019-05-13T07:27:12.288Z,20.90
2019-05-13T07:29:42.378Z,21.10
2019-05-13T07:34:43.830Z,20.30
2019-05-13T07:37:11.872Z,20.60
2019-05-13T07:39:41.967Z,20.70
2019-05-13T07:42:12.325Z,20.10
2019-05-13T07:44:41.672Z,20.70
2019-05-13T07:47:11.591Z,20.30
2019-05-13T07:49:42.027Z,21.10
2019-05-13T07:52:11.896Z,20.20
2019-05-13T07:54:42.005Z,20.90
2019-05-13T07:57:12.325Z,20.80
2019-05-13T07:59:41.960Z,21.10
2019-05-13T08:02:12.530Z,20.80
2019-05-13T08:04:42.170Z,20.10
2019-05-13T08:07:12.182Z,21.10
2019-05-13T08:09:41.899Z,20.50
2019-05-13T08:12:14.298Z,20.10
2019-05-13T08:14:43.541Z,20.30
2019-05-13T08:17:11.768Z,20.20
2019-05-13T08:19:41.511Z,20.40
2019-05-13T08:24:42.513Z,20.10
2019-05-13T08:27:12.096Z,21.10
2019-05-13T08:29:42.125Z,21.00
2019-05-13T08:32:11.293Z,21.00
2019-05-13T08:34:41.740Z,20.30
2019-05-13T08:39:41.463Z,21.10
2019-05-13T08:42:15.953Z,21.30
2019-05-13T08:44:41.714Z,21.30
2019-05-13T08:47:12.062Z,20.30
2019-05-13T08:49:41.451Z,21.20
2019-05-13T08:54:41.819Z,20.90
2019-05-13T08:59:42.188Z,20.50
2019-05-13T09:09:41.978Z,21.40
2019-05-13T09:12:13.161Z,21.40
2019-05-13T09:14:41.783Z,20.70
2019-05-13T09:17:12.026Z,20.40
2019-05-13T09:19:41.556Z,20.90
2019-05-13T09:24:42.494Z,21.20
2019-05-13T09:27:12.065Z,20.80
2019-05-13T09:29:42.717Z,21.30
2019-05-13T09:32:12.207Z,21.50
2019-05-13T09:34:42.266Z,21.30
2019-05-13T09:37:12.168Z,21.60
2019-05-13T09:39:41.556Z,20.70
2019-05-13T09:42:12.729Z,21.00
2019-05-13T09:44:42.093Z,21.40
2019-05-13T09:47:12.516Z,20.70
2019-05-13T09:49:41.983Z,20.90
2019-05-13T09:54:42.477Z,21.10
2019-05-13T10:07:12.421Z,20.80
2019-05-13T10:09:43.112Z,21.00
2019-05-13T10:17:13.155Z,20.90
2019-05-13T10:19:42.169Z,20.80
2019-05-13T10:22:11.966Z,21.80
2019-05-13T10:27:12.265Z,21.30
2019-05-13T10:29:42.945Z,21.40
2019-05-13T10:32:11.520Z,21.20
2019-05-13T10:34:42.569Z,21.30
2019-05-13T10:37:11.485Z,21.60
2019-05-13T10:39:40.888Z,21.60
2019-05-13T10:42:12.127Z,21.70
2019-05-13T10:44:42.260Z,21.50
2019-05-13T10:47:12.012Z,20.90
2019-05-13T10:49:42.523Z,21.80
2019-05-13T10:54:41.532Z,22.00
2019-05-13T10:57:13.667Z,21.70
2019-05-13T10:59:40.967Z,21.70
2019-05-13T11:02:13.076Z,22.00
2019-05-13T11:04:41.798Z,21.90
2019-05-13T11:07:12.081Z,20.90
2019-05-13T11:09:41.972Z,21.30
2019-05-13T11:19:42.137Z,21.10
2019-05-13T11:22:12.275Z,21.40
2019-05-13T11:24:43.194Z,20.80
2019-05-13T11:27:12.356Z,20.90
2019-05-13T11:32:13.204Z,21.50
2019-05-13T11:34:42.149Z,21.20
2019-05-13T11:39:42.776Z,22.00
2019-05-13T11:42:15.514Z,21.70
2019-05-13T11:44:44.928Z,21.70
2019-05-13T11:47:13.408Z,20.90
2019-05-13T11:49:42.585Z,21.70
2019-05-13T11:52:12.136Z,22.00
2019-05-13T11:54:42.519Z,21.50
2019-05-13T11:57:12.507Z,21.50
2019-05-13T11:59:43.021Z,22.10
2019-05-13T12:04:43.173Z,21.40
2019-05-13T12:09:41.480Z,21.10
2019-05-13T12:12:13.221Z,21.90
2019-05-13T12:14:56.901Z,22.10
2019-05-13T12:19:41.845Z,21.20
2019-05-13T12:24:42.262Z,21.70
2019-05-13T12:34:45.595Z,21.90
2019-05-13T12:39:43.847Z,21.70
2019-05-13T12:42:12.657Z,21.70
2019-05-13T12:45:00.630Z,21.60
2019-05-13T12:47:12.582Z,21.10
2019-05-13T12:49:43.908Z,21.90
2019-05-13T12:54:43.785Z,22.00
2019-05-13T12:57:15.558Z,22.20
2019-05-13T13:02:13.357Z,21.60
2019-05-13T13:07:13.398Z,21.10
2019-05-13T13:14:44.408Z,21.50
2019-05-13T13:19:42.380Z,22.10
2019-05-13T13:24:51.284Z,22.00
2019-05-13T13:29:43.284Z,21.80
2019-05-13T13:32:13.468Z,22.10
2019-05-13T13:34:43.881Z,22.30
2019-05-13T13:37:14.495Z,21.30
2019-05-13T13:39:44.079Z,22.30
2019-05-13T13:42:13.241Z,21.60
2019-05-13T13:44:43.195Z,21.80
2019-05-13T13:47:14.935Z,22.10
2019-05-13T13:49:43.952Z,21.60
2019-05-13T14:00:14.070Z,21.50
2019-05-13T14:04:43.410Z,21.30
2019-05-13T14:06:25.465Z,21.80
2019-05-13T14:07:22.666Z,22.00
2019-05-13T14:09:43.419Z,21.90
2019-05-13T14:12:11.860Z,21.50
2019-05-13T14:14:41.456Z,22.00
2019-05-13T14:19:42.150Z,22.20
2019-05-13T14:22:12.631Z,22.00
2019-05-13T14:24:42.543Z,21.60
2019-05-13T14:27:12.022Z,21.00
2019-05-13T14:29:48.415Z,22.00
2019-05-13T14:32:12.012Z,22.00
2019-05-13T14:34:42.039Z,21.60
2019-05-13T14:39:40.572Z,21.20
2019-05-13T14:42:11.602Z,22.10
2019-05-13T14:44:40.307Z,22.30
2019-05-13T14:47:09.489Z,22.20
2019-05-13T14:49:37.935Z,22.30
2019-05-13T14:52:06.714Z,21.80
2019-05-13T14:54:35.564Z,21.40
2019-05-13T14:57:11.704Z,21.70
2019-05-13T14:59:41.298Z,21.30
2019-05-13T15:02:11.645Z,21.30
2019-05-13T15:07:12.176Z,21.50
2019-05-13T15:09:42.112Z,22.30
2019-05-13T15:14:40.677Z,22.00
2019-05-13T15:19:37.825Z,22.40
2019-05-13T15:22:08.056Z,21.70
2019-05-13T15:27:04.997Z,22.30
2019-05-13T15:29:33.444Z,22.00
2019-05-13T15:37:02.013Z,22.10
2019-05-13T15:39:31.635Z,21.30
2019-05-13T15:42:01.943Z,21.60
2019-05-13T15:44:32.598Z,22.50
2019-05-13T15:47:03.884Z,21.40
2019-05-13T15:52:01.945Z,21.70
2019-05-13T15:54:32.718Z,21.50
2019-05-13T15:59:31.034Z,21.30
2019-05-13T16:02:01.353Z,22.10
2019-05-13T16:06:58.084Z,22.40
2019-05-13T16:11:54.915Z,22.00
2019-05-13T16:14:23.731Z,22.00
2019-05-13T16:16:52.180Z,21.60
2019-05-13T16:19:21.980Z,21.40
2019-05-13T16:21:51.855Z,21.80
2019-05-13T16:24:21.571Z,22.10
2019-05-13T16:26:53.505Z,21.20
2019-05-13T16:29:22.547Z,22.10
2019-05-13T16:31:51.986Z,21.70
2019-05-13T16:39:21.322Z,22.00
2019-05-13T16:46:51.248Z,21.70
2019-05-13T16:59:21.124Z,21.50
2019-05-13T17:01:51.255Z,21.80
2019-05-13T17:04:21.463Z,22.00
2019-05-13T17:06:52.996Z,22.00
2019-05-13T17:09:20.892Z,21.20
2019-05-13T17:14:17.768Z,21.20
2019-05-13T17:16:47.067Z,21.50
2019-05-13T17:21:43.936Z,22.30
2019-05-13T17:24:12.711Z,21.60
2019-05-13T17:26:41.923Z,21.90
2019-05-13T17:29:12.172Z,21.50
2019-05-13T17:39:12.522Z,21.10
2019-05-13T17:46:41.805Z,21.50
2019-05-13T17:49:11.862Z,22.20
2019-05-13T17:51:42.557Z,21.90
2019-05-13T17:54:11.829Z,21.60
2019-05-13T17:56:40.971Z,21.70
2019-05-13T18:01:41.535Z,21.00
2019-05-13T18:04:11.881Z,21.60
2019-05-13T18:06:41.730Z,21.30
2019-05-13T18:09:12.060Z,21.60
2019-05-13T18:11:41.771Z,21.00
2019-05-13T18:14:11.498Z,21.70
2019-05-13T18:16:42.029Z,21.60
2019-05-13T18:19:11.997Z,21.70
2019-05-13T18:21:42.372Z,21.70
2019-05-13T18:24:11.940Z,21.40
2019-05-13T18:26:41.812Z,21.00
2019-05-13T18:29:12.499Z,21.60
2019-05-13T18:31:42.149Z,21.50
2019-05-13T18:34:12.223Z,21.70
2019-05-13T18:36:42.641Z,20.90
2019-05-13T18:44:12.207Z,21.20
2019-05-13T18:46:41.908Z,20.90
2019-05-13T18:51:42.293Z,20.90
2019-05-13T18:54:12.139Z,21.20
2019-05-13T18:56:41.755Z,21.10
2019-05-13T19:04:11.264Z,21.10
2019-05-13T19:06:42.353Z,20.90
2019-05-13T19:09:11.261Z,20.80
2019-05-13T19:11:42.580Z,20.80
2019-05-13T19:14:12.241Z,21.20
2019-05-13T19:16:42.217Z,21.60
2019-05-13T19:19:15.563Z,21.30
2019-05-13T19:21:41.617Z,21.60
2019-05-13T19:24:13.154Z,20.80
2019-05-13T19:26:41.607Z,21.30
2019-05-13T19:29:11.555Z,21.10
2019-05-13T19:31:41.793Z,20.60
2019-05-13T19:34:12.722Z,20.60
2019-05-13T19:36:41.239Z,20.90
2019-05-13T19:39:11.423Z,21.70
2019-05-13T19:44:08.027Z,21.60
2019-05-13T19:46:36.504Z,21.70
2019-05-13T19:49:05.801Z,21.30
2019-05-13T19:51:34.281Z,20.80
2019-05-13T19:54:02.724Z,21.50
2019-05-13T20:04:02.434Z,21.10
2019-05-13T20:11:31.445Z,21.00
2019-05-13T20:16:32.003Z,21.40
2019-05-13T20:19:01.297Z,21.30
2019-05-13T20:21:31.903Z,21.40
2019-05-13T20:26:32.135Z,20.60
2019-05-13T20:29:01.562Z,21.10
2019-05-13T20:31:32.060Z,20.80
2019-05-13T20:34:01.709Z,21.10
2019-05-13T20:36:31.504Z,21.10
2019-05-13T20:39:02.144Z,20.90
2019-05-13T20:41:31.722Z,20.60
2019-05-13T20:44:01.525Z,21.00
2019-05-13T20:49:00.831Z,21.00
2019-05-13T20:51:31.315Z,21.10
2019-05-13T20:56:28.428Z,20.80
2019-05-13T20:58:58.446Z,20.40
2019-05-13T21:01:26.919Z,20.30
2019-05-13T21:03:55.395Z,20.60
2019-05-13T21:06:23.920Z,20.80
2019-05-13T21:08:52.398Z,20.30
2019-05-13T21:11:20.844Z,20.70
2019-05-13T21:13:51.611Z,20.70
2019-05-13T21:18:50.072Z,20.80
2019-05-13T21:21:18.515Z,20.20
2019-05-13T21:26:16.234Z,20.40
2019-05-13T21:28:45.635Z,20.40
2019-05-13T21:31:14.195Z,20.40
2019-05-13T21:33:42.912Z,20.80
2019-05-13T21:36:12.359Z,20.70
2019-05-13T21:38:41.637Z,20.40
2019-05-13T21:41:11.758Z,20.70
2019-05-13T21:43:41.421Z,20.90
2019-05-13T21:48:41.646Z,20.70
2019-05-13T21:51:13.386Z,20.90
2019-05-13T21:53:41.494Z,20.70
2019-05-13T21:56:12.188Z,20.50
2019-05-13T21:58:41.619Z,20.80
2019-05-13T22:01:10.260Z,20.80
2019-05-13T22:08:35.339Z,20.70
2019-05-13T22:13:32.279Z,19.90
2019-05-13T22:16:01.858Z,19.80
2019-05-13T22:18:31.583Z,20.80
2019-05-13T22:21:01.524Z,20.50
2019-05-13T22:23:32.330Z,20.70
2019-05-13T22:26:01.591Z,20.60
2019-05-13T22:28:31.631Z,20.00
2019-05-13T22:31:01.314Z,20.80
2019-05-13T22:36:01.608Z,20.70
2019-05-13T22:38:32.277Z,20.90
2019-05-13T22:41:01.501Z,19.90
2019-05-13T22:43:31.982Z,20.70
2019-05-13T22:46:00.271Z,20.60
2019-05-13T22:48:31.527Z,20.00
2019-05-13T22:51:01.380Z,20.30
2019-05-13T22:56:00.482Z,19.80
2019-05-13T23:00:57.391Z,20.10
2019-05-13T23:05:53.975Z,20.20
2019-05-13T23:08:22.732Z,19.70
2019-05-13T23:13:20.412Z,19.80
2019-05-13T23:15:51.481Z,20.60
2019-05-13T23:20:47.800Z,19.70
2019-05-13T23:23:16.244Z,19.70
2019-05-13T23:25:44.961Z,20.10
2019-05-13T23:28:13.435Z,19.70
2019-05-13T23:30:41.957Z,20.30
2019-05-13T23:38:10.732Z,19.60
2019-05-13T23:40:39.170Z,20.80
2019-05-13T23:43:08.542Z,20.60
2019-05-13T23:45:37.018Z,19.90
2019-05-13T23:50:33.867Z,19.50
2019-05-13T23:55:32.118Z,19.50
2019-05-13T23:58:02.517Z,19.70
